createdAt,value
2017-05-26T00:00:05.759Z,11.20
2017-05-26T00:02:34.063Z,11.20
2017-05-26T00:05:02.395Z,11.20
2017-05-26T00:07:30.715Z,11.20
2017-05-26T00:09:59.015Z,11.10
2017-05-26T00:12:27.324Z,11.00
2017-05-26T00:14:55.798Z,10.90
2017-05-26T00:17:24.111Z,10.90
2017-05-26T00:19:52.465Z,10.80
2017-05-26T00:22:20.791Z,10.80
2017-05-26T00:24:49.130Z,10.80
2017-05-26T00:27:17.441Z,10.80
2017-05-26T00:29:45.746Z,10.70
2017-05-26T00:32:14.071Z,10.70
2017-05-26T00:34:42.389Z,10.70
2017-05-26T00:37:10.797Z,10.70
2017-05-26T00:39:39.279Z,10.60
2017-05-26T00:42:07.681Z,10.60
2017-05-26T00:44:36.047Z,10.50
2017-05-26T00:47:04.369Z,10.50
2017-05-26T00:49:32.700Z,10.40
2017-05-26T00:52:01.041Z,10.50
2017-05-26T00:54:29.349Z,10.50
2017-05-26T00:56:58.179Z,10.50
2017-05-26T00:59:26.520Z,10.50
2017-05-26T01:01:54.831Z,10.50
2017-05-26T01:04:23.137Z,10.60
2017-05-26T01:06:51.765Z,10.60
2017-05-26T01:09:20.065Z,10.60
2017-05-26T01:11:48.368Z,10.60
2017-05-26T01:14:16.697Z,10.50
2017-05-26T01:16:45.075Z,10.50
2017-05-26T01:19:13.394Z,10.50
2017-05-26T01:21:41.690Z,10.50
2017-05-26T01:24:09.989Z,10.40
2017-05-26T01:26:38.382Z,10.40
2017-05-26T01:29:06.678Z,10.30
2017-05-26T01:31:35.232Z,10.30
2017-05-26T01:34:03.542Z,10.30
2017-05-26T01:36:31.896Z,10.30
2017-05-26T01:39:00.221Z,10.40
2017-05-26T01:41:28.556Z,10.50
2017-05-26T01:43:56.863Z,10.60
2017-05-26T01:46:25.310Z,10.60
2017-05-26T01:48:53.619Z,10.60
2017-05-26T01:51:22.183Z,10.60
2017-05-26T01:53:50.507Z,10.60
2017-05-26T01:56:18.826Z,10.60
2017-05-26T01:58:47.205Z,10.60
2017-05-26T02:01:15.522Z,10.60
2017-05-26T02:03:43.870Z,10.60
2017-05-26T02:06:12.173Z,10.60
2017-05-26T02:08:40.479Z,10.60
2017-05-26T02:11:08.893Z,10.60
2017-05-26T02:13:37.266Z,10.60
2017-05-26T02:16:05.587Z,10.60
2017-05-26T02:18:34.016Z,10.50
2017-05-26T02:21:02.322Z,10.50
2017-05-26T02:23:30.655Z,10.50
2017-05-26T02:25:59.076Z,10.50
2017-05-26T02:28:27.374Z,10.40
2017-05-26T02:30:55.715Z,10.40
2017-05-26T02:33:24.095Z,10.40
2017-05-26T02:35:52.404Z,10.40
2017-05-26T02:38:20.742Z,10.40
2017-05-26T02:40:49.050Z,10.40
2017-05-26T02:43:17.414Z,10.40
2017-05-26T02:45:45.794Z,10.40
2017-05-26T02:48:14.101Z,10.40
2017-05-26T02:50:42.417Z,10.40
2017-05-26T02:53:10.750Z,10.40
2017-05-26T02:55:39.051Z,10.30
2017-05-26T02:58:07.380Z,10.30
2017-05-26T03:00:35.747Z,10.30
2017-05-26T03:03:04.051Z,10.20
2017-05-26T03:05:32.501Z,10.20
2017-05-26T03:08:00.885Z,10.20
2017-05-26T03:10:29.191Z,10.10
2017-05-26T03:12:57.519Z,10.10
2017-05-26T03:15:25.924Z,10.00
2017-05-26T03:17:54.235Z,10.00
2017-05-26T03:20:22.566Z,9.90
2017-05-26T03:22:50.863Z,9.90
2017-05-26T03:25:19.164Z,9.80
2017-05-26T03:27:47.493Z,9.80
2017-05-26T03:30:15.792Z,9.90
2017-05-26T03:32:44.097Z,9.80
2017-05-26T03:35:12.429Z,9.80
2017-05-26T03:37:40.735Z,9.80
2017-05-26T03:40:09.090Z,9.80
2017-05-26T03:42:37.430Z,9.80
2017-05-26T03:45:05.733Z,9.80
2017-05-26T03:47:34.039Z,9.80
2017-05-26T03:50:02.358Z,9.80
2017-05-26T03:52:30.673Z,9.80
2017-05-26T03:54:58.978Z,9.80
2017-05-26T03:57:27.301Z,9.80
2017-05-26T03:59:55.601Z,9.90
2017-05-26T04:02:23.997Z,9.90
2017-05-26T04:04:52.323Z,10.00
2017-05-26T04:07:20.733Z,10.10
2017-05-26T04:09:49.133Z,10.10
2017-05-26T04:12:17.451Z,10.10
2017-05-26T04:14:45.769Z,10.10
2017-05-26T04:17:14.100Z,10.20
2017-05-26T04:19:42.407Z,10.20
2017-05-26T04:22:10.710Z,10.20
2017-05-26T04:24:39.181Z,10.20
2017-05-26T04:27:07.479Z,10.30
2017-05-26T04:29:35.778Z,10.30
2017-05-26T04:32:04.090Z,10.40
2017-05-26T04:34:32.390Z,10.50
2017-05-26T04:37:00.722Z,10.50
2017-05-26T04:39:29.047Z,10.50
2017-05-26T04:41:57.353Z,10.60
2017-05-26T04:44:25.658Z,10.70
2017-05-26T04:46:54.386Z,10.80
2017-05-26T04:49:22.718Z,10.90
2017-05-26T04:51:51.025Z,11.00
2017-05-26T04:54:19.327Z,11.10
2017-05-26T04:56:47.686Z,11.20
2017-05-26T04:59:16.177Z,11.30
2017-05-26T05:01:44.480Z,11.40
2017-05-26T05:04:12.856Z,11.50
2017-05-26T05:06:41.226Z,11.60
2017-05-26T05:09:09.527Z,11.60
2017-05-26T05:11:38.013Z,11.70
2017-05-26T05:14:06.315Z,11.80
2017-05-26T05:16:34.726Z,11.80
2017-05-26T05:19:03.134Z,11.90
2017-05-26T05:21:31.439Z,12.00
2017-05-26T05:23:59.732Z,12.10
2017-05-26T05:26:28.100Z,12.20
2017-05-26T05:28:56.426Z,12.30
2017-05-26T05:31:24.726Z,12.40
2017-05-26T05:33:53.084Z,12.50
2017-05-26T05:36:21.410Z,12.60
2017-05-26T05:38:49.714Z,12.70
2017-05-26T05:41:18.105Z,12.90
2017-05-26T05:43:46.431Z,13.00
2017-05-26T05:46:14.865Z,13.10
2017-05-26T05:48:43.347Z,13.20
2017-05-26T05:51:11.652Z,13.30
2017-05-26T05:53:40.021Z,13.40
2017-05-26T05:56:08.321Z,13.60
2017-05-26T05:58:36.613Z,13.80
2017-05-26T06:01:04.942Z,13.90
2017-05-26T06:03:33.433Z,14.00
2017-05-26T06:06:01.797Z,14.10
2017-05-26T06:08:30.188Z,14.30
2017-05-26T06:10:58.558Z,14.50
2017-05-26T06:13:26.857Z,14.60
2017-05-26T06:15:55.217Z,14.70
2017-05-26T06:18:23.520Z,14.80
2017-05-26T06:20:51.870Z,15.00
2017-05-26T06:23:20.251Z,15.10
2017-05-26T06:25:48.543Z,15.20
2017-05-26T06:28:16.997Z,15.40
2017-05-26T06:30:45.479Z,15.50
2017-05-26T06:33:13.879Z,15.60
2017-05-26T06:35:42.183Z,15.80
2017-05-26T06:38:10.494Z,15.90
2017-05-26T06:40:38.810Z,16.00
2017-05-26T06:43:07.174Z,16.20
2017-05-26T06:45:35.502Z,16.20
2017-05-26T06:48:03.805Z,16.30
2017-05-26T06:50:32.108Z,16.40
2017-05-26T06:53:00.478Z,16.50
2017-05-26T06:55:28.963Z,16.60
2017-05-26T06:57:57.282Z,16.70
2017-05-26T07:00:25.625Z,16.80
2017-05-26T07:02:53.945Z,16.90
2017-05-26T07:05:22.245Z,17.00
2017-05-26T07:07:50.561Z,17.10
2017-05-26T07:10:18.885Z,17.20
2017-05-26T07:12:47.181Z,17.20
2017-05-26T07:15:15.517Z,17.40
2017-05-26T07:17:43.812Z,17.40
2017-05-26T07:20:12.143Z,17.50
2017-05-26T07:22:40.535Z,17.50
2017-05-26T07:25:08.838Z,17.60
2017-05-26T07:27:37.135Z,17.70
2017-05-26T07:30:05.563Z,17.80
2017-05-26T07:32:33.863Z,17.90
2017-05-26T07:35:02.215Z,18.00
2017-05-26T07:37:30.530Z,18.00
2017-05-26T07:39:58.870Z,18.00
2017-05-26T07:42:27.186Z,17.90
2017-05-26T07:44:55.526Z,17.90
2017-05-26T07:47:23.846Z,17.90
2017-05-26T07:49:52.159Z,18.00
2017-05-26T07:52:20.453Z,18.10
2017-05-26T07:54:48.767Z,18.30
2017-05-26T07:57:17.106Z,18.50
2017-05-26T07:59:45.498Z,18.50
2017-05-26T08:02:13.883Z,18.60
2017-05-26T08:04:42.189Z,18.60
2017-05-26T08:07:10.505Z,18.60
2017-05-26T08:09:38.841Z,18.70
2017-05-26T08:12:07.277Z,18.80
2017-05-26T08:14:35.571Z,19.00
2017-05-26T08:17:03.895Z,19.00
2017-05-26T08:19:32.194Z,19.10
2017-05-26T08:22:00.499Z,19.20
2017-05-26T08:24:28.863Z,19.20
2017-05-26T08:26:57.251Z,19.40
2017-05-26T08:29:25.555Z,19.50
2017-05-26T08:31:53.898Z,19.50
2017-05-26T08:34:22.279Z,19.30
2017-05-26T08:36:50.574Z,19.50
2017-05-26T08:39:18.875Z,19.40
2017-05-26T08:41:47.206Z,19.40
2017-05-26T08:44:15.599Z,19.50
2017-05-26T08:46:43.926Z,19.60
2017-05-26T08:49:12.225Z,19.60
2017-05-26T08:51:40.522Z,19.70
2017-05-26T08:54:08.857Z,19.70
2017-05-26T08:56:37.182Z,19.70
2017-05-26T08:59:05.485Z,19.70
2017-05-26T09:01:33.805Z,19.80
2017-05-26T09:04:02.213Z,19.80
2017-05-26T09:06:30.602Z,19.90
2017-05-26T09:08:58.921Z,19.90
2017-05-26T09:11:27.217Z,20.00
2017-05-26T09:13:56.085Z,20.10
2017-05-26T09:16:24.443Z,20.10
2017-05-26T09:18:52.740Z,20.20
2017-05-26T09:21:21.071Z,20.30
2017-05-26T09:23:49.403Z,20.30
2017-05-26T09:26:17.698Z,20.40
2017-05-26T09:28:46.096Z,20.30
2017-05-26T09:31:14.478Z,20.50
2017-05-26T09:33:42.779Z,20.50
2017-05-26T09:36:11.230Z,20.50
2017-05-26T09:38:39.713Z,20.60
2017-05-26T09:41:08.107Z,20.60
2017-05-26T09:43:36.402Z,20.50
2017-05-26T09:46:04.763Z,20.50
2017-05-26T09:48:33.491Z,20.60
2017-05-26T09:51:01.793Z,20.70
2017-05-26T09:53:30.107Z,20.90
2017-05-26T09:55:58.477Z,20.80
2017-05-26T09:58:26.871Z,20.80
2017-05-26T10:00:55.170Z,20.90
2017-05-26T10:03:23.490Z,21.00
2017-05-26T10:05:51.786Z,21.10
2017-05-26T10:08:20.081Z,21.20
2017-05-26T10:10:48.831Z,21.20
2017-05-26T10:13:17.135Z,21.30
2017-05-26T10:15:45.432Z,21.40
2017-05-26T10:18:13.773Z,21.40
2017-05-26T10:20:42.162Z,21.40
2017-05-26T10:23:10.464Z,21.30
2017-05-26T10:25:38.817Z,21.50
2017-05-26T10:28:07.114Z,21.60
2017-05-26T10:30:35.483Z,21.70
2017-05-26T10:33:03.850Z,21.90
2017-05-26T10:35:32.248Z,22.00
2017-05-26T10:38:00.541Z,22.10
2017-05-26T10:40:28.891Z,22.40
2017-05-26T10:42:57.190Z,22.50
2017-05-26T10:45:25.554Z,22.70
2017-05-26T10:47:53.879Z,22.90
2017-05-26T10:50:22.189Z,23.20
2017-05-26T10:52:50.671Z,23.30
2017-05-26T10:55:19.002Z,23.50
2017-05-26T10:57:47.334Z,23.60
2017-05-26T11:00:15.837Z,24.10
2017-05-26T11:02:44.299Z,24.80
2017-05-26T11:05:12.599Z,25.20
2017-05-26T11:07:40.894Z,25.90
2017-05-26T11:10:09.207Z,26.60
2017-05-26T11:12:37.602Z,27.30
2017-05-26T11:15:05.910Z,27.70
2017-05-26T11:17:34.202Z,28.50
2017-05-26T11:20:02.736Z,29.40
2017-05-26T11:22:31.036Z,30.10
2017-05-26T11:24:59.332Z,30.70
2017-05-26T11:27:27.871Z,32.00
2017-05-26T11:29:56.186Z,32.80
2017-05-26T11:32:24.493Z,33.50
2017-05-26T11:34:52.866Z,33.20
2017-05-26T11:37:21.188Z,34.20
2017-05-26T11:39:49.561Z,34.80
2017-05-26T11:42:17.959Z,34.50
2017-05-26T11:44:46.341Z,35.40
2017-05-26T11:47:14.674Z,35.30
2017-05-26T11:49:42.978Z,35.60
2017-05-26T11:52:11.278Z,35.80
2017-05-26T11:54:39.594Z,36.30
2017-05-26T11:57:07.940Z,36.30
2017-05-26T11:59:36.386Z,37.10
2017-05-26T12:02:04.868Z,36.40
2017-05-26T12:04:33.193Z,36.60
2017-05-26T12:07:01.497Z,37.50
2017-05-26T12:09:29.902Z,37.90
2017-05-26T12:11:58.650Z,38.40
2017-05-26T12:14:26.950Z,38.60
2017-05-26T12:16:55.345Z,39.00
2017-05-26T12:19:23.739Z,38.80
2017-05-26T12:21:52.029Z,40.20
2017-05-26T12:24:20.480Z,40.20
2017-05-26T12:26:48.811Z,40.80
2017-05-26T12:29:17.146Z,41.10
2017-05-26T12:31:45.444Z,40.40
2017-05-26T12:34:13.813Z,40.20
2017-05-26T12:36:41.735Z,40.20
2017-05-26T12:39:10.061Z,39.20
2017-05-26T12:41:37.719Z,39.10
2017-05-26T12:44:06.017Z,39.70
2017-05-26T12:46:34.355Z,40.20
2017-05-26T12:49:02.661Z,41.30
2017-05-26T12:51:31.017Z,42.00
2017-05-26T12:53:59.328Z,42.70
2017-05-26T12:56:27.629Z,42.60
2017-05-26T12:58:56.047Z,42.40
2017-05-26T13:01:24.426Z,42.20
2017-05-26T13:03:52.815Z,41.50
2017-05-26T13:06:21.166Z,41.60
2017-05-26T13:08:49.552Z,42.70
2017-05-26T13:11:18.038Z,43.50
2017-05-26T13:13:46.519Z,42.40
2017-05-26T13:16:14.842Z,42.30
2017-05-26T13:18:43.190Z,42.80
2017-05-26T13:21:11.568Z,42.40
2017-05-26T13:23:39.866Z,42.40
2017-05-26T13:26:08.213Z,42.70
2017-05-26T13:28:36.547Z,42.50
2017-05-26T13:31:04.851Z,42.40
2017-05-26T13:33:33.245Z,42.80
2017-05-26T13:36:01.566Z,41.70
2017-05-26T13:38:29.865Z,42.00
2017-05-26T13:40:58.167Z,42.70
2017-05-26T13:43:26.585Z,42.50
2017-05-26T13:45:55.027Z,42.40
2017-05-26T13:48:23.508Z,42.40
2017-05-26T13:50:51.902Z,43.20
2017-05-26T13:53:20.267Z,43.30
2017-05-26T13:55:48.573Z,42.20
2017-05-26T13:58:16.913Z,41.70
2017-05-26T14:00:45.218Z,42.70
2017-05-26T14:03:13.556Z,42.10
2017-05-26T14:05:41.954Z,41.70
2017-05-26T14:08:10.445Z,42.00
2017-05-26T14:10:38.774Z,41.60
2017-05-26T14:13:07.101Z,41.80
2017-05-26T14:15:35.572Z,42.70
2017-05-26T14:18:03.905Z,42.80
2017-05-26T14:20:32.205Z,42.30
2017-05-26T14:23:00.518Z,42.70
2017-05-26T14:25:28.855Z,42.40
2017-05-26T14:27:57.165Z,43.20
2017-05-26T14:30:25.981Z,43.00
2017-05-26T14:32:54.883Z,43.00
2017-05-26T14:35:23.177Z,42.40
2017-05-26T14:37:51.595Z,42.00
2017-05-26T14:40:20.077Z,41.90
2017-05-26T14:42:48.471Z,41.80
2017-05-26T14:45:16.779Z,41.60
2017-05-26T14:47:45.110Z,41.30
2017-05-26T14:50:13.411Z,41.80
2017-05-26T14:52:41.719Z,41.80
2017-05-26T14:55:10.034Z,42.20
2017-05-26T14:57:38.522Z,42.40
2017-05-26T15:00:07.005Z,42.80
2017-05-26T15:02:35.486Z,42.40
2017-05-26T15:05:03.870Z,42.90
2017-05-26T15:07:32.174Z,43.20
2017-05-26T15:10:00.478Z,42.70
2017-05-26T15:12:28.837Z,43.40
2017-05-26T15:14:57.133Z,43.70
2017-05-26T15:17:25.437Z,43.70
2017-05-26T15:19:53.760Z,43.90
2017-05-26T15:22:22.069Z,43.70
2017-05-26T15:24:50.371Z,42.30
2017-05-26T15:27:18.689Z,42.20
2017-05-26T15:29:46.999Z,41.90
2017-05-26T15:32:15.333Z,40.90
2017-05-26T15:34:43.635Z,41.50
2017-05-26T15:37:11.934Z,40.80
2017-05-26T15:39:40.355Z,40.70
2017-05-26T15:42:08.710Z,40.40
2017-05-26T15:44:37.010Z,40.00
2017-05-26T15:47:05.335Z,40.00
2017-05-26T15:49:33.656Z,40.20
2017-05-26T15:52:01.985Z,39.90
2017-05-26T15:54:30.311Z,39.60
2017-05-26T15:56:58.610Z,39.60
2017-05-26T15:59:27.275Z,39.60
2017-05-26T16:01:55.766Z,39.60
2017-05-26T16:04:24.231Z,39.20
2017-05-26T16:06:52.618Z,39.00
2017-05-26T16:09:21.326Z,39.30
2017-05-26T16:11:49.778Z,39.20
2017-05-26T16:14:18.174Z,39.40
2017-05-26T16:16:46.737Z,38.60
2017-05-26T16:19:15.064Z,38.50
2017-05-26T16:21:42.606Z,38.50
2017-05-26T16:24:10.906Z,38.20
2017-05-26T16:26:39.332Z,37.80
2017-05-26T16:29:07.633Z,36.90
2017-05-26T16:31:35.998Z,36.20
2017-05-26T16:34:04.301Z,35.60
2017-05-26T16:36:32.599Z,34.90
2017-05-26T16:39:00.912Z,34.10
2017-05-26T16:41:29.323Z,33.70
2017-05-26T16:43:57.647Z,32.60
2017-05-26T16:46:25.938Z,32.00
2017-05-26T16:48:54.240Z,31.50
2017-05-26T16:51:22.573Z,31.10
2017-05-26T16:53:50.898Z,30.70
2017-05-26T16:56:19.198Z,30.10
2017-05-26T16:58:47.520Z,29.60
2017-05-26T17:01:15.851Z,29.20
2017-05-26T17:03:44.157Z,29.00
2017-05-26T17:06:12.485Z,29.10
2017-05-26T17:08:40.795Z,29.10
2017-05-26T17:11:09.098Z,29.00
2017-05-26T17:13:37.522Z,28.80
2017-05-26T17:16:05.850Z,28.60
2017-05-26T17:18:34.166Z,28.50
